KAL1543 RKPK-RKPC
Flight info
| Callsign | KAL1543 |
|---|---|
| Flight time | 0h 45m |
| Altitude | 28000 |
| Route | OPONO3 ENGOT Y572 UPGOS UPGOS2M |
| Aircraft | B739/M-SDE2E3FGHIRWXY/LB1 |
Departure
| Time | 2026-04-28 03:59 |
|---|---|
| Airport | Gimhae International Airport (RKPK) |
Arrival
| Time | 2026-04-28 04:45 |
|---|---|
| Airport | Jeju International Airport (RKPC) |
| Time | Latitude | Longitude | Altitude | Speed | Heading |
|---|---|---|---|---|---|
| 2026-04-28 03:46 | 35.16972 | 128.94821 | 22 ft | 0 kts | 24° |
| 2026-04-28 03:53 | 35.16957 | 128.94813 | 26 ft | 2 kts | 24° |
| 2026-04-28 03:53 | 35.16942 | 128.94805 | 25 ft | 2 kts | 24° |
| 2026-04-28 03:53 | 35.16927 | 128.94796 | 25 ft | 2 kts | 19° |
| 2026-04-28 03:53 | 35.16911 | 128.94796 | 25 ft | 2 kts | 340° |
| 2026-04-28 03:54 | 35.16897 | 128.94805 | 26 ft | 2 kts | 295° |
| 2026-04-28 03:54 | 35.16892 | 128.94819 | 25 ft | 0 kts | 293° |
| 2026-04-28 03:56 | 35.16904 | 128.94786 | 24 ft | 8 kts | 294° |
| 2026-04-28 03:56 | 35.16930 | 128.94716 | 25 ft | 10 kts | 294° |
| 2026-04-28 03:57 | 35.16960 | 128.94636 | 22 ft | 15 kts | 294° |
| 2026-04-28 03:57 | 35.16998 | 128.94511 | 22 ft | 14 kts | 274° |
| 2026-04-28 03:57 | 35.16991 | 128.94395 | 22 ft | 13 kts | 264° |
| 2026-04-28 03:57 | 35.16980 | 128.94285 | 24 ft | 13 kts | 264° |
| 2026-04-28 03:58 | 35.16970 | 128.94177 | 22 ft | 13 kts | 263° |
| 2026-04-28 03:58 | 35.16980 | 128.94075 | 21 ft | 12 kts | 308° |
| 2026-04-28 03:58 | 35.17059 | 128.94044 | 21 ft | 12 kts | 353° |
| 2026-04-28 03:58 | 35.17391 | 128.94002 | 24 ft | 93 kts | 354° |
| 2026-04-28 03:59 | 35.18312 | 128.93889 | 29 ft | 168 kts | 353° |
| 2026-04-28 03:59 | 35.19585 | 128.93754 | 662 ft | 187 kts | 351° |
| 2026-04-28 03:59 | 35.20773 | 128.93243 | 1777 ft | 172 kts | 313° |
| 2026-04-28 03:59 | 35.21452 | 128.92002 | 2531 ft | 192 kts | 297° |
| 2026-04-28 04:00 | 35.22112 | 128.90459 | 2847 ft | 215 kts | 297° |
| 2026-04-28 04:00 | 35.22840 | 128.88812 | 3406 ft | 224 kts | 298° |
| 2026-04-28 04:00 | 35.23608 | 128.87138 | 4112 ft | 227 kts | 299° |
| 2026-04-28 04:00 | 35.24396 | 128.85479 | 4737 ft | 224 kts | 300° |
| 2026-04-28 04:01 | 35.25190 | 128.83839 | 5006 ft | 227 kts | 300° |
| 2026-04-28 04:01 | 35.26020 | 128.82168 | 5023 ft | 230 kts | 300° |
| 2026-04-28 04:01 | 35.26867 | 128.80497 | 4964 ft | 229 kts | 300° |
| 2026-04-28 04:01 | 35.27685 | 128.78850 | 5017 ft | 227 kts | 300° |
| 2026-04-28 04:02 | 35.28512 | 128.77213 | 5037 ft | 223 kts | 300° |
| 2026-04-28 04:02 | 35.29329 | 128.75588 | 4996 ft | 223 kts | 297° |
| 2026-04-28 04:02 | 35.29710 | 128.73780 | 5033 ft | 223 kts | 270° |
| 2026-04-28 04:02 | 35.29338 | 128.71912 | 5073 ft | 235 kts | 250° |
| 2026-04-28 04:03 | 35.28299 | 128.70223 | 5091 ft | 257 kts | 227° |
| 2026-04-28 04:03 | 35.26935 | 128.68720 | 5006 ft | 265 kts | 226° |
| 2026-04-28 04:03 | 35.25563 | 128.67227 | 5014 ft | 263 kts | 226° |
| 2026-04-28 04:03 | 35.24223 | 128.65752 | 5024 ft | 263 kts | 227° |
| 2026-04-28 04:04 | 35.22870 | 128.64263 | 5010 ft | 260 kts | 226° |
| 2026-04-28 04:04 | 35.21532 | 128.62782 | 5024 ft | 259 kts | 227° |
| 2026-04-28 04:04 | 35.20195 | 128.61295 | 5011 ft | 259 kts | 226° |
| 2026-04-28 04:04 | 35.18858 | 128.59818 | 5001 ft | 260 kts | 226° |
| 2026-04-28 04:05 | 35.17511 | 128.58324 | 4985 ft | 262 kts | 226° |
| 2026-04-28 04:05 | 35.16170 | 128.56837 | 5016 ft | 261 kts | 227° |
| 2026-04-28 04:05 | 35.14834 | 128.55358 | 5068 ft | 259 kts | 225° |
| 2026-04-28 04:05 | 35.13480 | 128.53877 | 5001 ft | 263 kts | 222° |
| 2026-04-28 04:06 | 35.11832 | 128.52910 | 5133 ft | 268 kts | 197° |
| 2026-04-28 04:06 | 35.09987 | 128.52583 | 5756 ft | 269 kts | 190° |
| 2026-04-28 04:06 | 35.08094 | 128.52396 | 6581 ft | 275 kts | 189° |
| 2026-04-28 04:06 | 35.06171 | 128.52233 | 7458 ft | 277 kts | 190° |
| 2026-04-28 04:07 | 35.04245 | 128.52069 | 8414 ft | 277 kts | 191° |
| 2026-04-28 04:07 | 35.02310 | 128.51896 | 9308 ft | 279 kts | 191° |
| 2026-04-28 04:07 | 35.00371 | 128.51715 | 10163 ft | 281 kts | 192° |
| 2026-04-28 04:07 | 34.98371 | 128.51516 | 10594 ft | 299 kts | 192° |
| 2026-04-28 04:08 | 34.96201 | 128.51289 | 10774 ft | 325 kts | 191° |
| 2026-04-28 04:08 | 34.93857 | 128.51055 | 10953 ft | 349 kts | 191° |
| 2026-04-28 04:08 | 34.91369 | 128.50814 | 11259 ft | 366 kts | 190° |
| 2026-04-28 04:08 | 34.88807 | 128.50568 | 11896 ft | 372 kts | 190° |
| 2026-04-28 04:09 | 34.86225 | 128.50317 | 12652 ft | 374 kts | 190° |
| 2026-04-28 04:09 | 34.83621 | 128.50035 | 13188 ft | 376 kts | 194° |
| 2026-04-28 04:09 | 34.81175 | 128.49070 | 13884 ft | 366 kts | 212° |
| 2026-04-28 04:09 | 34.79123 | 128.47287 | 14457 ft | 361 kts | 229° |
| 2026-04-28 04:10 | 34.77455 | 128.45056 | 15130 ft | 361 kts | 232° |
| 2026-04-28 04:10 | 34.75807 | 128.42744 | 15803 ft | 363 kts | 233° |
| 2026-04-28 04:10 | 34.74159 | 128.40407 | 16428 ft | 365 kts | 233° |
| 2026-04-28 04:10 | 34.72498 | 128.38057 | 17026 ft | 368 kts | 233° |
| 2026-04-28 04:11 | 34.70819 | 128.35692 | 17601 ft | 371 kts | 233° |
| 2026-04-28 04:11 | 34.69124 | 128.33319 | 18170 ft | 373 kts | 233° |
| 2026-04-28 04:11 | 34.67413 | 128.30933 | 18681 ft | 375 kts | 233° |
| 2026-04-28 04:11 | 34.65693 | 128.28544 | 19219 ft | 375 kts | 233° |
| 2026-04-28 04:12 | 34.63968 | 128.26154 | 19737 ft | 377 kts | 233° |
| 2026-04-28 04:12 | 34.62239 | 128.23760 | 20241 ft | 377 kts | 234° |
| 2026-04-28 04:12 | 34.60500 | 128.21356 | 20736 ft | 379 kts | 234° |
| 2026-04-28 04:12 | 34.58783 | 128.18982 | 21216 ft | 380 kts | 234° |
| 2026-04-28 04:13 | 34.57014 | 128.16538 | 21639 ft | 382 kts | 234° |
| 2026-04-28 04:13 | 34.55256 | 128.14110 | 21977 ft | 384 kts | 234° |
| 2026-04-28 04:13 | 34.53501 | 128.11691 | 21988 ft | 382 kts | 234° |
| 2026-04-28 04:13 | 34.51764 | 128.09295 | 22000 ft | 385 kts | 234° |
| 2026-04-28 04:14 | 34.49989 | 128.06851 | 22010 ft | 385 kts | 234° |
| 2026-04-28 04:14 | 34.48218 | 128.04420 | 22008 ft | 385 kts | 234° |
| 2026-04-28 04:14 | 34.46446 | 128.01991 | 22014 ft | 385 kts | 234° |
| 2026-04-28 04:14 | 34.44676 | 127.99560 | 22019 ft | 384 kts | 234° |
| 2026-04-28 04:15 | 34.42908 | 127.97130 | 22009 ft | 384 kts | 234° |
| 2026-04-28 04:15 | 34.41140 | 127.94701 | 22016 ft | 384 kts | 234° |
| 2026-04-28 04:15 | 34.37689 | 127.89982 | 22034 ft | 350 kts | 234° |
| 2026-04-28 04:16 | 34.36133 | 127.87871 | 22006 ft | 322 kts | 235° |
| 2026-04-28 04:16 | 34.34704 | 127.85922 | 21996 ft | 296 kts | 236° |
| 2026-04-28 04:16 | 34.33385 | 127.84117 | 21972 ft | 278 kts | 236° |
| 2026-04-28 04:16 | 34.32123 | 127.82375 | 22015 ft | 275 kts | 236° |
| 2026-04-28 04:17 | 34.30823 | 127.80578 | 22045 ft | 293 kts | 236° |
| 2026-04-28 04:17 | 34.29461 | 127.78695 | 22040 ft | 309 kts | 236° |
| 2026-04-28 04:17 | 34.28003 | 127.76696 | 22037 ft | 325 kts | 235° |
| 2026-04-28 04:17 | 34.26472 | 127.74611 | 22042 ft | 339 kts | 234° |
| 2026-04-28 04:18 | 34.24878 | 127.72439 | 22044 ft | 351 kts | 234° |
| 2026-04-28 04:18 | 34.23237 | 127.70200 | 22040 ft | 361 kts | 234° |
| 2026-04-28 04:18 | 34.21563 | 127.67919 | 22024 ft | 361 kts | 234° |
| 2026-04-28 04:18 | 34.19896 | 127.65654 | 22020 ft | 358 kts | 234° |
| 2026-04-28 04:19 | 34.18249 | 127.63415 | 22021 ft | 356 kts | 234° |
| 2026-04-28 04:19 | 34.16602 | 127.61176 | 21677 ft | 358 kts | 234° |
| 2026-04-28 04:19 | 34.14960 | 127.58944 | 21192 ft | 354 kts | 234° |
| 2026-04-28 04:19 | 34.13336 | 127.56737 | 20644 ft | 350 kts | 234° |
| 2026-04-28 04:20 | 34.11725 | 127.54549 | 20092 ft | 347 kts | 234° |
| 2026-04-28 04:20 | 34.10127 | 127.52377 | 19489 ft | 346 kts | 234° |
| 2026-04-28 04:20 | 34.08531 | 127.50208 | 18901 ft | 345 kts | 234° |
| 2026-04-28 04:20 | 34.06941 | 127.48049 | 18323 ft | 344 kts | 234° |
| 2026-04-28 04:21 | 34.05355 | 127.45898 | 17702 ft | 343 kts | 233° |
| 2026-04-28 04:21 | 34.03776 | 127.43756 | 17118 ft | 340 kts | 233° |
| 2026-04-28 04:21 | 34.02210 | 127.41632 | 16568 ft | 338 kts | 233° |
| 2026-04-28 04:21 | 34.00651 | 127.39527 | 16029 ft | 336 kts | 233° |
| 2026-04-28 04:22 | 33.99148 | 127.37394 | 15485 ft | 331 kts | 240° |
| 2026-04-28 04:22 | 33.98243 | 127.34936 | 14980 ft | 324 kts | 258° |
| 2026-04-28 04:22 | 33.98046 | 127.32266 | 14686 ft | 313 kts | 273° |
| 2026-04-28 04:22 | 33.98367 | 127.29781 | 14802 ft | 293 kts | 283° |
| 2026-04-28 04:23 | 33.99166 | 127.27574 | 14694 ft | 284 kts | 298° |
| 2026-04-28 04:23 | 34.00270 | 127.25618 | 14436 ft | 281 kts | 302° |
| 2026-04-28 04:23 | 34.01432 | 127.23725 | 14036 ft | 281 kts | 303° |
| 2026-04-28 04:23 | 34.02588 | 127.21829 | 13541 ft | 280 kts | 302° |
| 2026-04-28 04:24 | 34.03733 | 127.19931 | 12996 ft | 279 kts | 302° |
| 2026-04-28 04:24 | 34.04848 | 127.18048 | 12703 ft | 270 kts | 299° |
| 2026-04-28 04:24 | 34.05547 | 127.15994 | 12440 ft | 267 kts | 280° |
| 2026-04-28 04:24 | 34.05685 | 127.13747 | 12094 ft | 272 kts | 270° |
| 2026-04-28 04:25 | 34.05668 | 127.11445 | 11730 ft | 276 kts | 269° |
| 2026-04-28 04:25 | 34.05651 | 127.09119 | 11358 ft | 277 kts | 270° |
| 2026-04-28 04:25 | 34.05640 | 127.06832 | 10998 ft | 275 kts | 268° |
| 2026-04-28 04:25 | 34.05221 | 127.04602 | 10622 ft | 275 kts | 246° |
| 2026-04-28 04:26 | 34.04087 | 127.02735 | 10278 ft | 279 kts | 225° |
| 2026-04-28 04:26 | 34.02481 | 127.01461 | 10144 ft | 275 kts | 208° |
| 2026-04-28 04:26 | 34.00648 | 127.00927 | 9915 ft | 271 kts | 189° |
| 2026-04-28 04:26 | 33.98785 | 127.00829 | 9567 ft | 264 kts | 187° |
| 2026-04-28 04:27 | 33.96975 | 127.00770 | 9324 ft | 254 kts | 187° |
| 2026-04-28 04:27 | 33.95210 | 127.00701 | 9232 ft | 254 kts | 187° |
| 2026-04-28 04:27 | 33.93442 | 127.00622 | 9112 ft | 255 kts | 187° |
| 2026-04-28 04:27 | 33.91668 | 127.00791 | 9010 ft | 261 kts | 165° |
| 2026-04-28 04:28 | 33.90133 | 127.01937 | 9023 ft | 268 kts | 140° |
| 2026-04-28 04:28 | 33.88810 | 127.03533 | 9019 ft | 269 kts | 137° |
| 2026-04-28 04:28 | 33.87499 | 127.05144 | 9011 ft | 269 kts | 138° |
| 2026-04-28 04:28 | 33.86186 | 127.06743 | 9005 ft | 268 kts | 138° |
| 2026-04-28 04:29 | 33.84789 | 127.08211 | 9005 ft | 264 kts | 150° |
| 2026-04-28 04:29 | 33.83223 | 127.09344 | 9009 ft | 262 kts | 154° |
| 2026-04-28 04:29 | 33.81632 | 127.10424 | 9005 ft | 262 kts | 154° |
| 2026-04-28 04:29 | 33.80051 | 127.11510 | 9010 ft | 262 kts | 154° |
| 2026-04-28 04:30 | 33.78472 | 127.12599 | 9014 ft | 261 kts | 156° |
| 2026-04-28 04:30 | 33.76812 | 127.13355 | 9009 ft | 258 kts | 168° |
| 2026-04-28 04:30 | 33.75065 | 127.13927 | 8993 ft | 263 kts | 169° |
| 2026-04-28 04:30 | 33.73293 | 127.14504 | 9004 ft | 262 kts | 169° |
| 2026-04-28 04:31 | 33.71544 | 127.15093 | 9005 ft | 259 kts | 168° |
| 2026-04-28 04:31 | 33.69807 | 127.15606 | 9001 ft | 254 kts | 178° |
| 2026-04-28 04:31 | 33.68050 | 127.15712 | 9021 ft | 254 kts | 183° |
| 2026-04-28 04:31 | 33.66277 | 127.15735 | 9022 ft | 256 kts | 183° |
| 2026-04-28 04:32 | 33.64494 | 127.15771 | 9026 ft | 257 kts | 182° |
| 2026-04-28 04:32 | 33.62704 | 127.15825 | 9020 ft | 258 kts | 182° |
| 2026-04-28 04:32 | 33.60927 | 127.15688 | 9012 ft | 255 kts | 194° |
| 2026-04-28 04:32 | 33.59203 | 127.15233 | 9019 ft | 253 kts | 197° |
| 2026-04-28 04:33 | 33.57511 | 127.14738 | 9008 ft | 252 kts | 201° |
| 2026-04-28 04:33 | 33.56046 | 127.13709 | 9013 ft | 242 kts | 229° |
| 2026-04-28 04:33 | 33.55175 | 127.12030 | 8944 ft | 239 kts | 253° |
| 2026-04-28 04:33 | 33.54976 | 127.10053 | 8675 ft | 241 kts | 276° |
| 2026-04-28 04:34 | 33.55359 | 127.08139 | 8465 ft | 232 kts | 287° |
| 2026-04-28 04:34 | 33.55892 | 127.06342 | 8197 ft | 225 kts | 289° |
| 2026-04-28 04:34 | 33.56427 | 127.04622 | 7964 ft | 215 kts | 289° |
| 2026-04-28 04:34 | 33.56941 | 127.02965 | 7741 ft | 208 kts | 289° |
| 2026-04-28 04:35 | 33.57435 | 127.01350 | 7533 ft | 204 kts | 289° |
| 2026-04-28 04:35 | 33.57920 | 126.99758 | 7341 ft | 202 kts | 289° |
| 2026-04-28 04:35 | 33.58399 | 126.98175 | 7143 ft | 201 kts | 288° |
| 2026-04-28 04:35 | 33.58871 | 126.96602 | 6943 ft | 200 kts | 288° |
| 2026-04-28 04:36 | 33.59334 | 126.95059 | 6751 ft | 199 kts | 288° |
| 2026-04-28 04:36 | 33.59801 | 126.93497 | 6554 ft | 199 kts | 288° |
| 2026-04-28 04:36 | 33.60265 | 126.91936 | 6347 ft | 199 kts | 288° |
| 2026-04-28 04:36 | 33.60729 | 126.90377 | 6143 ft | 199 kts | 288° |
| 2026-04-28 04:37 | 33.61195 | 126.88807 | 5939 ft | 199 kts | 289° |
| 2026-04-28 04:37 | 33.61661 | 126.87237 | 5732 ft | 199 kts | 289° |
| 2026-04-28 04:37 | 33.62125 | 126.85668 | 5535 ft | 200 kts | 288° |
| 2026-04-28 04:37 | 33.62592 | 126.84092 | 5330 ft | 201 kts | 289° |
| 2026-04-28 04:38 | 33.62902 | 126.83049 | 5204 ft | 200 kts | 289° |
| 2026-04-28 04:38 | 33.63369 | 126.81470 | 5001 ft | 200 kts | 289° |
| 2026-04-28 04:38 | 33.63971 | 126.79433 | 4715 ft | 189 kts | 289° |
| 2026-04-28 04:38 | 33.64261 | 126.78444 | 4598 ft | 184 kts | 289° |
| 2026-04-28 04:39 | 33.64638 | 126.76974 | 4416 ft | 185 kts | 276° |
| 2026-04-28 04:39 | 33.64332 | 126.75502 | 4236 ft | 184 kts | 244° |
| 2026-04-28 04:39 | 33.63781 | 126.74111 | 4046 ft | 185 kts | 248° |
| 2026-04-28 04:39 | 33.63210 | 126.72732 | 3848 ft | 184 kts | 244° |
| 2026-04-28 04:40 | 33.62589 | 126.71404 | 3640 ft | 181 kts | 242° |
| 2026-04-28 04:40 | 33.61955 | 126.70115 | 3462 ft | 178 kts | 241° |
| 2026-04-28 04:40 | 33.61318 | 126.68862 | 3288 ft | 179 kts | 240° |
| 2026-04-28 04:40 | 33.60661 | 126.67581 | 3113 ft | 180 kts | 240° |
| 2026-04-28 04:41 | 33.59999 | 126.66295 | 2924 ft | 181 kts | 240° |
| 2026-04-28 04:41 | 33.59341 | 126.65021 | 2757 ft | 177 kts | 240° |
| 2026-04-28 04:41 | 33.58694 | 126.63767 | 2585 ft | 178 kts | 239° |
| 2026-04-28 04:41 | 33.58047 | 126.62510 | 2392 ft | 176 kts | 239° |
| 2026-04-28 04:42 | 33.57407 | 126.61273 | 2205 ft | 174 kts | 240° |
| 2026-04-28 04:42 | 33.56776 | 126.60036 | 2109 ft | 180 kts | 242° |
| 2026-04-28 04:42 | 33.56091 | 126.58709 | 1824 ft | 189 kts | 240° |
| 2026-04-28 04:42 | 33.55422 | 126.57416 | 1575 ft | 174 kts | 241° |
| 2026-04-28 04:43 | 33.54807 | 126.56221 | 1397 ft | 168 kts | 240° |
| 2026-04-28 04:43 | 33.54185 | 126.55011 | 1135 ft | 173 kts | 241° |
| 2026-04-28 04:43 | 33.53557 | 126.53788 | 945 ft | 172 kts | 241° |
| 2026-04-28 04:43 | 33.52930 | 126.52571 | 725 ft | 170 kts | 242° |
| 2026-04-28 04:44 | 33.52322 | 126.51385 | 419 ft | 163 kts | 242° |
| 2026-04-28 04:44 | 33.51745 | 126.50289 | 223 ft | 148 kts | 244° |
| 2026-04-28 04:44 | 33.51233 | 126.49270 | 100 ft | 137 kts | 244° |
| 2026-04-28 04:44 | 33.50829 | 126.48480 | 92 ft | 56 kts | 238° |
| 2026-04-28 04:45 | 33.50667 | 126.48226 | 94 ft | 27 kts | 219° |
| 2026-04-28 04:45 | 33.50565 | 126.48161 | 92 ft | 16 kts | 198° |
| 2026-04-28 04:45 | 33.50517 | 126.48245 | 93 ft | 15 kts | 70° |
| 2026-04-28 04:45 | 33.50570 | 126.48352 | 92 ft | 15 kts | 58° |
| 2026-04-28 04:46 | 33.50621 | 126.48453 | 91 ft | 14 kts | 58° |
| 2026-04-28 04:46 | 33.50673 | 126.48552 | 91 ft | 15 kts | 58° |
| 2026-04-28 04:46 | 33.50733 | 126.48668 | 90 ft | 18 kts | 58° |
| 2026-04-28 04:46 | 33.50792 | 126.48786 | 88 ft | 16 kts | 64° |
| 2026-04-28 04:47 | 33.50748 | 126.48884 | 90 ft | 15 kts | 148° |
| 2026-04-28 04:47 | 33.50708 | 126.48965 | 90 ft | 11 kts | 66° |
| 2026-04-28 04:47 | 33.50707 | 126.49013 | 88 ft | 4 kts | 136° |
| 2026-04-28 04:47 | 33.50677 | 126.49031 | 90 ft | 7 kts | 151° |
| 2026-04-28 04:48 | 33.50642 | 126.49054 | 92 ft | 2 kts | 151° |